Time;durP1;ratioP1;P1;durP2;ratioP2;P2;SDS_P1;SDS_P2;PMS_P1;PMS_P2;Temp;Humidity;BMP_temperature;BMP_pressure;BME280_temperature;BME280_humidity;BME280_pressure;Samples;Min_cycle;Max_cycle;Signal;HPM_P1;HPM_P2
2022/12/28 00:00:55;;;;;;;;;;;;;;;0.01;100.00;101704.97;5548105;32;34367;-67
2022/12/28 00:04:04;;;;;;;;;;;;;;;-0.06;100.00;101709.62;5533950;32;32904;-67
2022/12/28 00:07:11;;;;;;;;;;;;;;;-0.15;100.00;101704.81;5548206;32;34110;-67
2022/12/28 00:10:19;;;;;;;;;;;;;;;-0.19;100.00;101697.16;5535006;32;34116;-67
2022/12/28 00:13:46;;;;;;;;;;;;;;;0.07;100.00;101693.41;5532792;32;34216;-67
2022/12/28 00:16:55;;;;;;;;;;;;;;;0.03;100.00;101697.09;5548194;32;33260;-66
2022/12/28 00:20:00;;;;;;;;;;;;;;;-0.02;100.00;101700.75;5533803;32;32690;-66
2022/12/28 00:23:09;;;;;;;;;;;;;;;-0.11;100.00;101697.69;5533789;32;32000;-66
2022/12/28 00:26:17;;;;;;;;;;;;;;;-0.23;100.00;101695.63;5548014;32;33646;-67
2022/12/28 00:29:27;;;;;;;;;;;;;;;-0.31;100.00;101697.72;5547931;32;33647;-67
2022/12/28 00:32:35;;;;;;;;;;;;;;;-0.36;100.00;101692.69;5547931;32;33709;-66
2022/12/28 00:35:51;;;;;;;;;;;;;;;-0.42;100.00;101703.38;5548018;32;34132;-66
2022/12/28 00:38:59;;;;;;;;;;;;;;;-0.49;100.00;101704.56;5547712;32;34331;-66
2022/12/28 00:42:10;;;;;;;;;;;;;;;-0.21;100.00;101712.91;5548211;32;33285;-66
2022/12/28 00:45:19;;;;;;;;;;;;;;;-0.21;100.00;101712.06;5547832;32;33644;-66
2022/12/28 00:48:30;;;;;;;;;;;;;;;-0.14;100.00;101706.50;5534972;32;34124;-67
2022/12/28 00:51:37;;;;;;;;;;;;;;;-0.19;100.00;101713.66;5547749;32;33845;-66
2022/12/28 00:54:46;;;;;;;;;;;;;;;-0.19;100.00;101710.22;5547821;32;34207;-66
2022/12/28 00:57:54;;;;;;;;;;;;;;;-0.13;100.00;101716.00;5547655;32;34445;-67
2022/12/28 01:01:01;;;;;;;;;;;;;;;-0.13;100.00;101728.22;5533408;32;31835;-67
2022/12/28 01:04:11;;;;;;;;;;;;;;;-0.37;100.00;101731.87;5547305;32;33810;-67
2022/12/28 01:07:19;;;;;;;;;;;;;;;-0.47;100.00;101731.41;5547475;32;34038;-66
2022/12/28 01:10:28;;;;;;;;;;;;;;;-0.52;100.00;101726.38;5534056;32;34016;-66
2022/12/28 01:13:37;;;;;;;;;;;;;;;-0.60;100.00;101730.25;5547308;32;34403;-66
2022/12/28 01:16:45;;;;;;;;;;;;;;;-0.67;100.00;101727.03;5547225;32;34160;-66
2022/12/28 01:19:53;;;;;;;;;;;;;;;-0.77;100.00;101736.13;5547036;32;33492;-67
2022/12/28 01:22:59;;;;;;;;;;;;;;;-0.88;100.00;101733.97;5532913;32;32348;-67
2022/12/28 01:26:13;;;;;;;;;;;;;;;-0.94;100.00;101731.63;5536687;32;33508;-67
2022/12/28 01:29:20;;;;;;;;;;;;;;;-1.00;100.00;101731.00;5549568;32;34244;-67
2022/12/28 01:32:27;;;;;;;;;;;;;;;-1.01;100.00;101735.37;5549595;32;34194;-67
2022/12/28 01:35:33;;;;;;;;;;;;;;;-1.04;100.00;101732.91;5549531;32;33565;-66
2022/12/28 01:38:42;;;;;;;;;;;;;;;-1.12;100.00;101728.91;5549415;32;34379;-67
2022/12/28 01:41:49;;;;;;;;;;;;;;;-1.06;100.00;101726.03;5549532;32;33669;-67
2022/12/28 01:44:56;;;;;;;;;;;;;;;-1.14;100.00;101718.53;5535480;32;32873;-66
2022/12/28 01:48:05;;;;;;;;;;;;;;;-1.18;100.00;101716.97;5523231;32;33185;-67
2022/12/28 01:51:12;;;;;;;;;;;;;;;-1.23;100.00;101715.44;5549390;32;34374;-67
2022/12/28 01:54:20;;;;;;;;;;;;;;;-1.27;100.00;101706.91;5536076;32;33670;-67
2022/12/28 01:57:31;;;;;;;;;;;;;;;-1.32;100.00;101706.25;5549482;32;34094;-67
2022/12/28 02:00:38;;;;;;;;;;;;;;;-1.40;100.00;101696.12;5535880;32;32353;-67
2022/12/28 02:03:46;;;;;;;;;;;;;;;-1.41;100.00;101702.25;5549025;32;33377;-67
2022/12/28 02:06:55;;;;;;;;;;;;;;;-1.49;100.00;101699.09;5535232;32;32976;-67
2022/12/28 02:10:04;;;;;;;;;;;;;;;-1.45;100.00;101703.25;5536039;32;33750;-67
2022/12/28 02:13:33;;;;;;;;;;;;;;;-1.39;100.00;101704.78;5538306;32;33777;-67
2022/12/28 02:16:42;;;;;;;;;;;;;;;-1.31;100.00;101700.16;5549205;32;33659;-67
2022/12/28 02:19:49;;;;;;;;;;;;;;;-1.07;100.00;101711.34;5549124;32;34368;-67
2022/12/28 02:23:21;;;;;;;;;;;;;;;-0.91;100.00;101707.19;5535900;32;33614;-67
2022/12/28 02:26:39;;;;;;;;;;;;;;;-0.86;100.00;101726.09;5532082;32;33243;-67
2022/12/28 02:29:58;;;;;;;;;;;;;;;-1.01;100.00;101730.16;5549401;32;33579;-67
2022/12/28 02:33:17;;;;;;;;;;;;;;;-1.17;100.00;101723.03;5535622;32;33518;-67
2022/12/28 02:36:27;;;;;;;;;;;;;;;-1.24;100.00;101713.75;5534687;32;33811;-67
2022/12/28 02:39:37;;;;;;;;;;;;;;;-1.22;100.00;101715.41;5548967;32;34283;-67
2022/12/28 02:42:45;;;;;;;;;;;;;;;-1.35;100.00;101720.22;5548896;32;34300;-67
2022/12/28 02:52:58;;;;;;;;;;;;;;;-1.58;100.00;101727.22;5548912;32;33806;-67
2022/12/28 02:56:17;;;;;;;;;;;;;;;-1.72;100.00;101716.47;5548905;32;34303;-68
2022/12/28 02:59:44;;;;;;;;;;;;;;;-1.79;100.00;101714.09;5548809;32;35029;-67
2022/12/28 03:02:59;;;;;;;;;;;;;;;-1.83;100.00;101711.66;5548869;32;33896;-67
2022/12/28 03:10:10;;;;;;;;;;;;;;;-1.79;100.00;101710.63;5548755;32;33190;-67
2022/12/28 03:13:44;;;;;;;;;;;;;;;-1.59;100.00;101710.75;5548766;32;33578;-67
2022/12/28 03:34:11;;;;;;;;;;;;;;;-1.58;100.00;101688.19;5537526;32;33216;-67
2022/12/28 03:37:27;;;;;;;;;;;;;;;-1.71;100.00;101689.56;5548414;32;33194;-66
2022/12/28 03:40:52;;;;;;;;;;;;;;;-1.78;100.00;101688.94;5548235;32;33040;-67
2022/12/28 03:44:05;;;;;;;;;;;;;;;-1.85;100.00;101690.09;5535336;32;33610;-67
2022/12/28 03:47:14;;;;;;;;;;;;;;;-1.97;100.00;101688.78;5548034;32;34355;-66
2022/12/28 03:50:24;;;;;;;;;;;;;;;-2.03;100.00;101675.16;5547641;32;33609;-67
2022/12/28 03:53:40;;;;;;;;;;;;;;;-2.07;100.00;101673.56;5548236;32;33705;-67
2022/12/28 03:56:50;;;;;;;;;;;;;;;-2.13;100.00;101673.81;5548295;32;34112;-67
2022/12/28 03:59:57;;;;;;;;;;;;;;;-2.17;100.00;101667.84;5548247;32;34135;-67
2022/12/28 04:03:05;;;;;;;;;;;;;;;-2.20;100.00;101667.97;5547992;32;34068;-67
2022/12/28 04:09:05;;;;;;;;;;;;;;;-1.73;100.00;101639.34;5547427;31;1732684;-67
2022/12/28 04:12:19;;;;;;;;;;;;;;;-1.73;100.00;101639.34;5587599;31;33339;-67
2022/12/28 04:15:28;;;;;;;;;;;;;;;-2.30;100.00;101659.66;5602147;31;34507;-67
2022/12/28 04:18:37;;;;;;;;;;;;;;;-2.34;100.00;101646.81;5602091;31;34791;-67
2022/12/28 04:21:44;;;;;;;;;;;;;;;-2.34;100.00;101645.06;5587701;31;34093;-67
2022/12/28 04:24:53;;;;;;;;;;;;;;;-2.35;100.00;101642.53;5602050;31;34710;-67
2022/12/28 04:27:59;;;;;;;;;;;;;;;-2.32;100.00;101637.19;5588103;31;34549;-68
2022/12/28 04:31:12;;;;;;;;;;;;;;;-2.31;100.00;101641.50;5601871;31;34770;-68
2022/12/28 04:34:19;;;;;;;;;;;;;;;-2.36;100.00;101640.81;5574495;31;33084;-68
2022/12/28 04:37:28;;;;;;;;;;;;;;;-2.39;100.00;101639.19;5588614;31;34725;-68
2022/12/28 04:40:34;;;;;;;;;;;;;;;-2.35;100.00;101638.19;5601832;31;34170;-68
2022/12/28 04:43:43;;;;;;;;;;;;;;;-2.35;100.00;101632.12;5601764;31;34031;-67
2022/12/28 04:46:49;;;;;;;;;;;;;;;-2.40;100.00;101645.28;5588032;31;34200;-68
2022/12/28 04:49:56;;;;;;;;;;;;;;;-2.45;100.00;101643.75;5602080;31;34864;-67
2022/12/28 04:53:05;;;;;;;;;;;;;;;-2.46;100.00;101639.44;5601730;31;34220;-67
2022/12/28 04:56:12;;;;;;;;;;;;;;;-2.47;100.00;101646.38;5601683;31;35050;-67
2022/12/28 04:59:21;;;;;;;;;;;;;;;-2.48;100.00;101647.31;5601553;31;34134;-67
2022/12/28 05:02:30;;;;;;;;;;;;;;;-2.47;100.00;101650.78;5601544;31;33990;-67
2022/12/28 05:05:37;;;;;;;;;;;;;;;-2.47;100.00;101649.00;5588151;31;34292;-67
2022/12/28 05:08:47;;;;;;;;;;;;;;;-2.45;100.00;101648.94;5601315;31;34327;-67
2022/12/28 05:11:53;;;;;;;;;;;;;;;-2.42;100.00;101648.84;5601505;31;34562;-67
2022/12/28 05:15:00;;;;;;;;;;;;;;;-2.34;100.00;101652.88;5587969;31;34786;-67
2022/12/28 05:18:06;;;;;;;;;;;;;;;-2.36;100.00;101651.22;5598539;31;34163;-67
2022/12/28 05:21:17;;;;;;;;;;;;;;;-2.31;100.00;101652.75;5588283;31;34062;-67
2022/12/28 05:24:25;;;;;;;;;;;;;;;-2.15;100.00;101654.81;5588282;31;34525;-69
2022/12/28 05:27:31;;;;;;;;;;;;;;;-2.05;100.00;101651.81;5574527;31;34027;-66
2022/12/28 05:30:39;;;;;;;;;;;;;;;-2.02;100.00;101643.03;5587998;31;34552;-66
2022/12/28 05:33:54;;;;;;;;;;;;;;;-2.05;100.00;101645.75;5587934;31;34132;-66
2022/12/28 05:37:01;;;;;;;;;;;;;;;-2.13;100.00;101637.41;5588065;31;34305;-67
2022/12/28 05:40:10;;;;;;;;;;;;;;;-2.17;100.00;101641.84;5588077;31;35044;-68
2022/12/28 05:43:16;;;;;;;;;;;;;;;-2.14;100.00;101639.16;5559531;32;34617;-67
2022/12/28 05:46:26;;;;;;;;;;;;;;;-2.19;100.00;101635.88;5568487;32;34091;-68
2022/12/28 05:49:33;;;;;;;;;;;;;;;-2.18;100.00;101631.53;5568470;32;34213;-67
2022/12/28 05:52:41;;;;;;;;;;;;;;;-2.28;100.00;101641.41;5567811;32;34160;-67
2022/12/28 05:55:50;;;;;;;;;;;;;;;-2.29;100.00;101637.09;5568420;32;33895;-67
2022/12/28 05:58:58;;;;;;;;;;;;;;;-2.27;100.00;101640.47;5567526;32;33434;-68
2022/12/28 06:02:04;;;;;;;;;;;;;;;-2.28;100.00;101644.00;5567195;32;32897;-67
2022/12/28 06:05:13;;;;;;;;;;;;;;;-2.33;100.00;101645.94;5567570;32;34633;-68
2022/12/28 06:08:20;;;;;;;;;;;;;;;-2.40;100.00;101647.88;5568081;32;34614;-68
2022/12/28 06:11:27;;;;;;;;;;;;;;;-2.40;100.00;101657.44;5567618;32;34544;-67
2022/12/28 06:14:33;;;;;;;;;;;;;;;-2.43;100.00;101662.75;5568161;32;34078;-69
2022/12/28 06:17:40;;;;;;;;;;;;;;;-2.42;100.00;101661.84;5554355;32;34533;-68
2022/12/28 06:20:47;;;;;;;;;;;;;;;-2.46;100.00;101661.09;5568157;32;34675;-68
2022/12/28 06:24:02;;;;;;;;;;;;;;;-2.54;100.00;101659.66;5567417;32;33639;-69
2022/12/28 06:27:10;;;;;;;;;;;;;;;-2.62;100.00;101665.13;5567859;32;35102;-68
2022/12/28 06:30:16;;;;;;;;;;;;;;;-2.64;100.00;101659.12;5567059;32;34185;-68
2022/12/28 06:33:22;;;;;;;;;;;;;;;-2.64;100.00;101660.00;5567709;32;34239;-68
2022/12/28 06:36:31;;;;;;;;;;;;;;;-2.68;100.00;101666.19;5554451;32;32936;-68
2022/12/28 06:39:38;;;;;;;;;;;;;;;-2.67;100.00;101662.69;5567085;32;34245;-67
2022/12/28 06:42:46;;;;;;;;;;;;;;;-2.67;100.00;101662.69;5567920;32;34275;-68
2022/12/28 06:45:55;;;;;;;;;;;;;;;-2.70;100.00;101672.31;5567893;32;33977;-68
2022/12/28 06:49:05;;;;;;;;;;;;;;;-2.71;100.00;101671.47;5567879;32;34374;-68
2022/12/28 06:52:11;;;;;;;;;;;;;;;-2.69;100.00;101669.69;5565773;32;32907;-69
2022/12/28 06:55:20;;;;;;;;;;;;;;;-2.69;100.00;101664.50;5560236;32;34154;-68
2022/12/28 06:58:30;;;;;;;;;;;;;;;-2.66;100.00;101671.31;5549019;32;32413;-68
2022/12/28 07:01:38;;;;;;;;;;;;;;;-2.62;100.00;101675.53;5567507;32;34097;-67
2022/12/28 07:04:46;;;;;;;;;;;;;;;-2.58;100.00;101674.53;5554611;32;34111;-68
2022/12/28 07:07:54;;;;;;;;;;;;;;;-2.52;100.00;101683.84;5567341;32;34744;-68
2022/12/28 07:11:04;;;;;;;;;;;;;;;-2.49;100.00;101679.38;5554489;32;34363;-69
2022/12/28 07:14:12;;;;;;;;;;;;;;;-2.40;100.00;101680.81;5567555;32;34135;-68
2022/12/28 07:17:18;;;;;;;;;;;;;;;-2.30;100.00;101672.66;5554133;32;34030;-67
2022/12/28 07:20:25;;;;;;;;;;;;;;;-2.30;100.00;101675.25;5554084;32;34744;-67
2022/12/28 07:23:34;;;;;;;;;;;;;;;-2.22;100.00;101673.22;5554157;32;34262;-68
2022/12/28 07:26:44;;;;;;;;;;;;;;;-2.05;100.00;101672.59;5540978;32;32800;-67
2022/12/28 07:29:53;;;;;;;;;;;;;;;-1.72;100.00;101662.69;5567396;32;34576;-68
2022/12/28 07:32:59;;;;;;;;;;;;;;;-1.51;100.00;101658.44;5567129;32;34184;-68
2022/12/28 07:36:11;;;;;;;;;;;;;;;-1.37;100.00;101663.94;5566853;32;34030;-69
2022/12/28 07:39:21;;;;;;;;;;;;;;;-1.31;100.00;101661.91;5553193;32;33228;-68
2022/12/28 07:42:30;;;;;;;;;;;;;;;-1.21;100.00;101656.38;5552953;32;34827;-68
2022/12/28 07:45:36;;;;;;;;;;;;;;;-1.18;100.00;101664.91;5563130;32;34097;-68
2022/12/28 07:48:43;;;;;;;;;;;;;;;-1.18;100.00;101667.50;5567219;32;34455;-69
2022/12/28 07:51:55;;;;;;;;;;;;;;;-1.12;100.00;101672.47;5567304;32;33656;-68
2022/12/28 07:55:01;;;;;;;;;;;;;;;-1.03;100.00;101677.31;5567547;32;34283;-68
2022/12/28 07:58:15;;;;;;;;;;;;;;;-0.96;100.00;101672.66;5567087;32;34416;-68
2022/12/28 08:01:25;;;;;;;;;;;;;;;-0.90;100.00;101675.03;5567062;32;34353;-69
2022/12/28 08:04:35;;;;;;;;;;;;;;;-0.91;100.00;101676.78;5566625;32;34162;-69
2022/12/28 08:07:43;;;;;;;;;;;;;;;-0.88;100.00;101674.06;5566607;32;34223;-68
2022/12/28 08:10:51;;;;;;;;;;;;;;;-0.89;100.00;101680.19;5552546;32;33072;-68
2022/12/28 08:13:58;;;;;;;;;;;;;;;-0.82;100.00;101679.94;5553488;32;33879;-68
2022/12/28 08:17:05;;;;;;;;;;;;;;;-0.75;100.00;101682.22;5552674;32;34607;-68
2022/12/28 08:20:10;;;;;;;;;;;;;;;-0.73;100.00;101669.97;5552422;32;34192;-68
2022/12/28 08:23:17;;;;;;;;;;;;;;;-0.64;100.00;101672.19;5552649;32;33728;-69
2022/12/28 08:26:29;;;;;;;;;;;;;;;-0.59;100.00;101659.81;5552624;32;35150;-67
2022/12/28 08:29:40;;;;;;;;;;;;;;;-0.53;100.00;101669.94;5566649;32;34248;-67
2022/12/28 08:32:51;;;;;;;;;;;;;;;-0.36;100.00;101664.03;5551418;32;32721;-67
2022/12/28 08:35:58;;;;;;;;;;;;;;;-0.20;100.00;101672.03;5566418;32;34568;-68
2022/12/28 08:39:05;;;;;;;;;;;;;;;-0.06;100.00;101672.25;5565432;32;33839;-68
2022/12/28 08:42:13;;;;;;;;;;;;;;;-0.03;100.00;101675.56;5552982;32;34572;-68
2022/12/28 08:45:22;;;;;;;;;;;;;;;0.08;100.00;101661.19;5566376;32;34912;-67
2022/12/28 08:48:29;;;;;;;;;;;;;;;0.13;100.00;101669.66;5563023;32;33919;-67
2022/12/28 08:51:40;;;;;;;;;;;;;;;0.17;100.00;101661.63;5565936;32;34805;-67
2022/12/28 08:54:46;;;;;;;;;;;;;;;0.38;100.00;101672.84;5567719;32;34973;-67
2022/12/28 08:57:53;;;;;;;;;;;;;;;0.54;100.00;101673.81;5554857;32;33858;-68
2022/12/28 09:01:15;;;;;;;;;;;;;;;0.46;100.00;101669.88;5568829;32;34193;-68
2022/12/28 09:04:21;;;;;;;;;;;;;;;0.53;100.00;101666.06;5555380;32;34855;-68
2022/12/28 09:07:29;;;;;;;;;;;;;;;0.67;100.00;101668.88;5568864;32;34044;-69
2022/12/28 09:10:37;;;;;;;;;;;;;;;0.80;100.00;101660.34;5568702;32;34704;-67
2022/12/28 09:13:47;;;;;;;;;;;;;;;0.91;100.00;101659.00;5555496;32;34115;-69
2022/12/28 09:16:56;;;;;;;;;;;;;;;1.16;100.00;101656.87;5555071;32;34040;-68
2022/12/28 09:20:05;;;;;;;;;;;;;;;1.43;100.00;101649.38;5568510;32;34066;-68
2022/12/28 09:23:13;;;;;;;;;;;;;;;1.78;100.00;101643.19;5567932;32;34123;-69
2022/12/28 09:26:24;;;;;;;;;;;;;;;1.91;100.00;101638.97;5568659;32;33463;-69
2022/12/28 09:29:35;;;;;;;;;;;;;;;2.16;100.00;101638.50;5555579;32;34227;-69
2022/12/28 09:32:43;;;;;;;;;;;;;;;2.23;100.00;101636.41;5567948;31;34174;-69
2022/12/28 09:35:49;;;;;;;;;;;;;;;2.42;100.00;101635.28;5566333;32;33937;-69
2022/12/28 09:38:59;;;;;;;;;;;;;;;2.65;100.00;101633.16;5568309;32;34844;-68
2022/12/28 09:42:05;;;;;;;;;;;;;;;2.41;100.00;101632.78;5554642;32;34336;-70
2022/12/28 09:45:12;;;;;;;;;;;;;;;2.38;100.00;101620.66;5567808;32;34405;-68
2022/12/28 09:48:21;;;;;;;;;;;;;;;2.26;100.00;101617.91;5566803;32;34140;-68
2022/12/28 09:51:34;;;;;;;;;;;;;;;2.24;100.00;101612.72;5567259;32;34732;-69
2022/12/28 09:54:40;;;;;;;;;;;;;;;2.32;100.00;101613.19;5539442;32;35056;-68
2022/12/28 09:57:53;;;;;;;;;;;;;;;2.26;100.00;101605.66;5552783;32;34008;-69
2022/12/28 10:01:00;;;;;;;;;;;;;;;2.36;100.00;101593.75;5553788;32;34225;-68
2022/12/28 10:04:06;;;;;;;;;;;;;;;2.47;100.00;101586.09;5567172;32;34864;-68
2022/12/28 10:07:10;;;;;;;;;;;;;;;2.62;100.00;101576.53;5566897;32;33845;-68
2022/12/28 10:10:16;;;;;;;;;;;;;;;2.77;100.00;101562.56;5553702;32;34240;-68
2022/12/28 10:13:23;;;;;;;;;;;;;;;2.89;100.00;101559.22;5553210;32;35761;-68
2022/12/28 10:16:48;;;;;;;;;;;;;;;2.88;100.00;101559.31;5567411;32;34615;-68
2022/12/28 10:19:55;;;;;;;;;;;;;;;2.85;100.00;101568.22;5553889;32;34222;-68
2022/12/28 10:23:01;;;;;;;;;;;;;;;2.94;100.00;101556.34;5540113;32;33225;-69
2022/12/28 10:26:06;;;;;;;;;;;;;;;3.23;100.00;101558.06;5539967;32;34222;-68
2022/12/28 10:29:15;;;;;;;;;;;;;;;3.48;100.00;101554.81;5565963;32;34595;-68
2022/12/28 10:32:22;;;;;;;;;;;;;;;3.87;100.00;101557.56;5567804;32;34106;-68
2022/12/28 10:35:32;;;;;;;;;;;;;;;4.42;100.00;101558.47;5568125;32;34023;-69
2022/12/28 10:38:37;;;;;;;;;;;;;;;4.82;95.67;101566.28;5566883;32;33802;-68
2022/12/28 10:41:44;;;;;;;;;;;;;;;4.84;91.52;101565.34;5563730;32;34187;-68
2022/12/28 10:44:52;;;;;;;;;;;;;;;4.99;91.13;101565.13;5566144;32;34547;-69
2022/12/28 10:47:57;;;;;;;;;;;;;;;5.23;90.52;101560.84;5553505;32;33354;-69
2022/12/28 10:51:12;;;;;;;;;;;;;;;5.27;88.45;101558.00;5554732;32;34493;-69
2022/12/28 10:54:23;;;;;;;;;;;;;;;5.30;87.08;101563.91;5566332;32;34189;-69
2022/12/28 10:57:34;;;;;;;;;;;;;;;5.23;87.26;101557.34;5566838;32;34187;-69
2022/12/28 11:00:41;;;;;;;;;;;;;;;4.91;87.64;101556.06;5552885;32;34150;-68
2022/12/28 11:04:04;;;;;;;;;;;;;;;4.99;87.95;101557.25;5566467;32;34705;-69
2022/12/28 11:07:22;;;;;;;;;;;;;;;4.90;88.02;101557.84;5554980;32;33846;-68
2022/12/28 11:10:31;;;;;;;;;;;;;;;4.82;86.65;101560.16;5566585;32;34387;-68
2022/12/28 11:13:38;;;;;;;;;;;;;;;4.72;87.57;101548.56;5567780;32;34166;-69
2022/12/28 11:16:43;;;;;;;;;;;;;;;5.06;84.53;101549.78;5553218;32;33753;-69
2022/12/28 11:19:53;;;;;;;;;;;;;;;5.27;83.90;101540.44;5567562;32;34088;-69
2022/12/28 11:23:03;;;;;;;;;;;;;;;5.43;84.38;101545.47;5567399;32;34686;-69
2022/12/28 11:26:11;;;;;;;;;;;;;;;5.54;81.17;101533.25;5566318;32;33040;-69
2022/12/28 11:29:19;;;;;;;;;;;;;;;5.76;81.01;101537.84;5560467;32;33412;-68
2022/12/28 11:32:30;;;;;;;;;;;;;;;5.46;81.02;101537.38;5567299;32;34548;-69
2022/12/28 11:35:39;;;;;;;;;;;;;;;5.35;82.77;101521.47;5554012;32;34052;-68
2022/12/28 11:38:48;;;;;;;;;;;;;;;5.60;80.60;101509.13;5566244;32;35142;-68
2022/12/28 11:41:57;;;;;;;;;;;;;;;5.69;80.34;101505.84;5566575;32;34210;-68
2022/12/28 11:45:56;;;;;;;;;;;;;;;5.50;80.75;101502.00;5566106;32;33674;-68
2022/12/28 11:49:03;;;;;;;;;;;;;;;5.56;81.82;101506.84;5525305;32;34302;-68
2022/12/28 11:52:16;;;;;;;;;;;;;;;5.23;82.76;101489.81;5558777;31;32825;-68
2022/12/28 11:55:25;;;;;;;;;;;;;;;5.25;84.21;101485.28;5572693;31;33761;-69
2022/12/28 11:58:42;;;;;;;;;;;;;;;5.27;83.37;101474.66;5573461;31;33874;-68
2022/12/28 12:01:50;;;;;;;;;;;;;;;5.27;85.00;101472.03;5571748;31;33064;-67
2022/12/28 12:04:56;;;;;;;;;;;;;;;5.24;86.15;101461.72;5573102;31;34069;-67
2022/12/28 12:08:22;;;;;;;;;;;;;;;5.27;85.84;101458.03;5565898;32;34644;-68
2022/12/28 12:11:29;;;;;;;;;;;;;;;5.34;83.69;101451.38;5557743;32;33756;-68
2022/12/28 12:14:40;;;;;;;;;;;;;;;5.74;80.94;101444.97;5545568;32;34245;-68
2022/12/28 12:18:13;;;;;;;;;;;;;;;6.00;78.88;101453.66;5546228;32;34849;-68
2022/12/28 12:21:28;;;;;;;;;;;;;;;6.20;77.16;101433.72;5533590;32;33974;-68
2022/12/28 12:24:40;;;;;;;;;;;;;;;6.34;76.87;101431.72;5547324;32;34017;-68
2022/12/28 12:27:52;;;;;;;;;;;;;;;6.21;76.57;101430.97;5545881;32;33333;-68
2022/12/28 12:30:59;;;;;;;;;;;;;;;6.01;76.88;101435.06;5548882;32;34095;-68
2022/12/28 12:34:09;;;;;;;;;;;;;;;5.71;78.94;101426.78;5548011;32;33660;-68
2022/12/28 12:37:35;;;;;;;;;;;;;;;5.78;79.79;101425.34;5552216;32;34230;-69
2022/12/28 12:41:04;;;;;;;;;;;;;;;5.93;80.42;101419.00;5569043;32;34379;-68
2022/12/28 12:44:20;;;;;;;;;;;;;;;5.78;79.95;101416.63;5539618;32;34358;-68
2022/12/28 12:47:27;;;;;;;;;;;;;;;5.70;80.23;101409.28;5529166;32;34199;-68
2022/12/28 12:50:46;;;;;;;;;;;;;;;5.90;78.21;101405.22;5529959;32;34483;-69
2022/12/28 12:54:11;;;;;;;;;;;;;;;5.82;79.11;101407.53;5529201;32;32893;-69
2022/12/28 12:57:25;;;;;;;;;;;;;;;5.96;78.65;101404.75;5545065;32;34014;-69
2022/12/28 13:00:38;;;;;;;;;;;;;;;6.10;77.64;101394.88;5543429;32;34171;-68
2022/12/28 13:03:51;;;;;;;;;;;;;;;5.96;77.49;101399.50;5548236;32;33187;-68
2022/12/28 13:06:58;;;;;;;;;;;;;;;5.88;78.90;101396.59;5559020;31;34230;-68
2022/12/28 13:10:12;;;;;;;;;;;;;;;5.97;79.21;101398.53;5588361;31;35400;-68
2022/12/28 13:13:23;;;;;;;;;;;;;;;6.03;79.48;101384.94;5561298;31;32798;-69
2022/12/28 13:16:32;;;;;;;;;;;;;;;6.02;78.70;101381.44;5575275;31;33968;-69
2022/12/28 13:19:40;;;;;;;;;;;;;;;6.10;78.38;101378.22;5566472;32;35096;-67
2022/12/28 13:22:48;;;;;;;;;;;;;;;6.15;78.96;101377.91;5569134;32;33981;-69
2022/12/28 13:25:56;;;;;;;;;;;;;;;6.21;79.61;101380.06;5568601;32;34856;-68
2022/12/28 13:29:08;;;;;;;;;;;;;;;6.18;79.75;101383.78;5568399;32;34646;-67
2022/12/28 13:32:27;;;;;;;;;;;;;;;6.03;79.97;101375.22;5554461;32;32964;-69
2022/12/28 13:35:41;;;;;;;;;;;;;;;5.72;81.11;101372.28;5568712;32;34157;-68
2022/12/28 13:38:58;;;;;;;;;;;;;;;5.61;82.41;101363.41;5568500;32;34187;-68
2022/12/28 13:42:05;;;;;;;;;;;;;;;5.61;81.23;101355.53;5554401;32;35049;-68
2022/12/28 13:45:14;;;;;;;;;;;;;;;5.65;81.85;101356.97;5551160;31;33035;-69
2022/12/28 13:48:21;;;;;;;;;;;;;;;5.71;81.76;101350.44;5574438;31;34525;-69
2022/12/28 13:51:29;;;;;;;;;;;;;;;5.62;80.40;101351.06;5587953;31;34494;-69
2022/12/28 13:54:36;;;;;;;;;;;;;;;5.63;79.99;101329.06;5573931;31;33322;-69
2022/12/28 13:57:46;;;;;;;;;;;;;;;5.63;79.34;101329.91;5588016;31;34674;-68
2022/12/28 14:01:02;;;;;;;;;;;;;;;5.59;79.13;101335.50;5573798;31;32914;-69
2022/12/28 14:04:22;;;;;;;;;;;;;;;5.55;79.95;101326.16;5574071;31;34022;-68
2022/12/28 14:07:49;;;;;;;;;;;;;;;5.48;80.35;101324.91;5576189;31;33687;-69
2022/12/28 14:10:56;;;;;;;;;;;;;;;5.36;80.20;101321.41;5560800;31;33209;-70
2022/12/28 14:14:03;;;;;;;;;;;;;;;5.34;80.47;101330.34;5587476;31;34084;-68
2022/12/28 14:17:10;;;;;;;;;;;;;;;5.27;81.85;101337.88;5587680;31;34205;-68
2022/12/28 14:20:16;;;;;;;;;;;;;;;5.33;82.08;101341.81;5573502;31;33145;-67
2022/12/28 14:23:24;;;;;;;;;;;;;;;5.30;80.55;101331.53;5587529;31;34109;-68
2022/12/28 14:26:31;;;;;;;;;;;;;;;5.20;82.24;101334.81;5587694;31;34813;-67
2022/12/28 14:29:41;;;;;;;;;;;;;;;5.11;82.89;101322.34;5571058;31;34563;-67
2022/12/28 14:32:48;;;;;;;;;;;;;;;5.09;82.61;101316.34;5568007;32;34014;-68
2022/12/28 14:35:58;;;;;;;;;;;;;;;5.10;81.09;101322.44;5567099;32;32590;-68
2022/12/28 14:39:06;;;;;;;;;;;;;;;5.05;84.10;101320.12;5567751;32;34033;-68
2022/12/28 14:42:24;;;;;;;;;;;;;;;5.03;84.20;101313.31;5567738;32;33866;-68
2022/12/28 14:45:35;;;;;;;;;;;;;;;4.97;83.16;101309.34;5567046;32;34289;-68
2022/12/28 14:49:20;;;;;;;;;;;;;;;4.88;85.10;101306.53;5567897;32;34147;-67
2022/12/28 14:52:32;;;;;;;;;;;;;;;4.78;85.78;101301.06;5553690;32;34378;-68
2022/12/28 14:56:00;;;;;;;;;;;;;;;4.70;87.04;101306.00;5541624;32;33548;-68
2022/12/28 14:59:16;;;;;;;;;;;;;;;4.67;87.54;101304.44;5540589;32;33301;-67
2022/12/28 15:02:37;;;;;;;;;;;;;;;4.70;87.29;101308.63;5542796;32;36528;-67
2022/12/28 15:05:44;;;;;;;;;;;;;;;4.65;89.45;101322.09;5553169;32;32889;-66
2022/12/28 15:08:52;;;;;;;;;;;;;;;4.49;89.88;101325.91;5566169;32;34308;-67
2022/12/28 15:12:08;;;;;;;;;;;;;;;4.33;90.99;101324.34;5552336;32;33887;-67
2022/12/28 15:15:14;;;;;;;;;;;;;;;4.28;92.72;101328.22;5559014;31;34959;-67
2022/12/28 15:18:22;;;;;;;;;;;;;;;4.07;94.96;101334.91;5585977;31;34814;-68
2022/12/28 15:21:32;;;;;;;;;;;;;;;4.04;97.19;101335.97;5541544;32;32933;-68
2022/12/28 15:24:40;;;;;;;;;;;;;;;3.96;98.01;101330.41;5552733;32;34064;-68
2022/12/28 15:27:48;;;;;;;;;;;;;;;4.02;97.79;101334.41;5553064;32;33318;-69
2022/12/28 15:30:56;;;;;;;;;;;;;;;3.90;99.54;101334.25;5540681;32;34213;-69
2022/12/28 15:34:04;;;;;;;;;;;;;;;3.80;100.00;101337.59;5567189;32;34283;-68
2022/12/28 15:37:11;;;;;;;;;;;;;;;3.74;100.00;101328.34;5553978;32;34257;-67
2022/12/28 15:40:19;;;;;;;;;;;;;;;4.01;100.00;101327.47;5553678;32;34202;-67
2022/12/28 15:43:24;;;;;;;;;;;;;;;4.00;100.00;101331.87;5553486;32;34197;-67
2022/12/28 15:46:28;;;;;;;;;;;;;;;4.27;99.05;101310.75;5553706;32;34845;-68
2022/12/28 15:49:32;;;;;;;;;;;;;;;4.26;99.83;101307.28;5565643;32;34112;-67
2022/12/28 15:52:39;;;;;;;;;;;;;;;4.23;100.00;101309.28;5541056;32;34836;-68
2022/12/28 15:55:57;;;;;;;;;;;;;;;4.11;100.00;101318.03;5553855;32;34693;-67
2022/12/28 15:59:07;;;;;;;;;;;;;;;4.01;100.00;101311.72;5552469;32;32812;-67
2022/12/28 16:02:16;;;;;;;;;;;;;;;4.04;100.00;101314.13;5552207;32;35538;-67
2022/12/28 16:05:20;;;;;;;;;;;;;;;3.99;100.00;101322.31;5553090;32;34698;-67
2022/12/28 16:08:28;;;;;;;;;;;;;;;3.91;100.00;101328.06;5553137;32;33935;-68
2022/12/28 16:11:38;;;;;;;;;;;;;;;3.86;100.00;101319.66;5541391;32;34235;-68
2022/12/28 16:14:46;;;;;;;;;;;;;;;3.88;100.00;101317.75;5566610;32;34932;-67
2022/12/28 16:17:53;;;;;;;;;;;;;;;3.81;100.00;101307.78;5539650;32;33488;-67
2022/12/28 16:21:02;;;;;;;;;;;;;;;3.90;100.00;101307.16;5566646;32;33961;-67
2022/12/28 16:24:11;;;;;;;;;;;;;;;3.74;100.00;101311.75;5540249;32;33572;-67
2022/12/28 16:27:20;;;;;;;;;;;;;;;3.62;100.00;101316.03;5552399;32;33825;-67
2022/12/28 16:30:31;;;;;;;;;;;;;;;3.50;100.00;101328.16;5539765;32;34636;-67
2022/12/28 16:33:42;;;;;;;;;;;;;;;3.47;100.00;101324.91;5553188;32;33791;-68
2022/12/28 16:36:55;;;;;;;;;;;;;;;3.48;100.00;101327.44;5553211;32;34784;-68
2022/12/28 16:40:01;;;;;;;;;;;;;;;3.42;100.00;101326.97;5539644;32;32975;-68
2022/12/28 16:43:11;;;;;;;;;;;;;;;3.44;100.00;101312.81;5551403;32;36082;-67
2022/12/28 16:46:19;;;;;;;;;;;;;;;3.59;100.00;101312.75;5566170;32;35395;-67